Surrey, British Columbia

11:35 PM PDT on September 30, 2016 (GMT -0700)
Surrey, British Columbia, Canada | | Change Station

Elev 272 ft 49.20 °N, 122.81 °W | Updated 14 minutes ago

Scattered Clouds
Scattered Clouds
48.9 °F
Feels Like 48.9 °F
N
0.0
Wind Variable Wind from NW
Gusts 0.0 mph

Today
High -- | Low -- °F
--% Chance of Precip.
Yesterday
High -- | Low -- °F
Precip. -- in
Pressure 29.96 in
Visibility 10.0 miles
Clouds Scattered Clouds 17000 ft
Dew Point 45.0 °F
Humidity 87%
Rainfall 0.00 in
Snow Depth Not available.
7:10 AM 6:50 PM
New Moon, 0% visible
METAR CYXX 010600Z 28003KT 270V350 10SM SCT170 08/06 A2995 RMK AC4 SLP145
Pressure 29.96 in
Visibility 10.0 miles
Clouds Scattered Clouds 17000 ft
Dew Point 45.0 °F
Humidity 87%
Rainfall 0.00 in
Snow Depth Not available.
7:10 AM 6:50 PM
New Moon, 0% visible
METAR CYXX 010600Z 28003KT 270V350 10SM SCT170 08/06 A2995 RMK AC4 SLP145

10-Day Weather Forecast

Almanac

Astronomy

Sep. 30, 2016 Rise Set
Actual Time
Civil Twilight
Nautical Twilight
Astronomical Twilight
Moon
Length of Visible Light
Length of Day
Tomorrow will be .
, % of the Moon is Illuminated

Today's Extremes

Country Highs Country Lows

Community

WunderPhotos

Upload Photos

1,942,898 photos uploaded!

WunderBlog® & News

Nearby

Air Quality

  Air Quality AQ Index Pollutant
Not available.

Snow Depth

Station Depth Elevation

Earthquake Activity

City Distance Mag. Time & Date
Minimum magnitude displayed is 2.5.

Coastal Water Temperatures

Place Temperature

Stations

Nearby Weather Stations

Station Location Temp. Windchill Dew Point Humidity Wind Precip. Elev Updated Type
                   

Watches & Warnings

There are currently no watches in effect.